Latest Weather Observations for Cerberus

IDV60801

Issued at 7:02 am EDT Saturday 25 November 2017 (issued every 30 minutes, with the page automatically refreshed every 10 minutes)

About weather observations | Map of weather stations | Latest weather observations for VIC | Other Formats
Station Details ID: 086361 Name: CERBERUS Lat: -38.36 Lon: 145.18 Height: 12.69 m
Data from the previous 72 hours. | See also: Recent months at Cerberus
Date/Time
EDT
Temp
°C
App
Temp
°C
Dew
Point
°C
Rel
Hum
%
Delta-T
°C
Wind Press
QNH
hPa
Press
MSL
hPa
Rain since
9am
mm
Dir  Spd
km/h
Gust
km/h
Spd
kts
Gust
kts
25/07:00am 18.2 19.2 16.4 89 1.1 SE 6 9 3 5 1014.7 1014.6 0.6
25/06:30am 17.6 19.2 15.9 90 1.0 S 2 6 1 3 1014.5 1014.4 0.6
25/06:00am 17.7 18.5 15.9 89 1.1 WSW 6 6 3 3 1014.4 1014.3 0.6
25/05:30am 17.8 18.7 16.0 89 1.1 SW 6 9 3 5 1014.2 1014.1 0.6
25/05:00am 17.8 18.1 16.0 89 1.1 SSW 9 15 5 8 1013.7 1013.6 0.6
25/04:30am 18.2 17.0 16.2 88 1.2 SW 17 22 9 12 1013.6 1013.5 0.6
25/04:00am 18.9 18.1 16.1 84 1.7 SW 15 24 8 13 1013.6 1013.5 0.6
25/03:30am 19.6 19.4 15.7 78 2.3 SW 11 19 6 10 1013.4 1013.4 0.6
25/03:00am 19.5 19.0 15.8 79 2.2 SSW 13 17 7 9 1012.8 1012.8 0.6
25/02:30am 20.5 21.6 15.5 73 3.0 NNE 4 9 2 5 1012.4 1012.4 0.6
25/02:00am 20.2 20.9 16.0 77 2.5 N 7 15 4 8 1012.3 1012.3 0.6
25/01:30am 19.6 21.1 16.6 83 1.8 NNE 4 7 2 4 1012.4 1012.4 0.6
25/01:00am 19.8 20.9 16.6 82 1.9 NNE 6 9 3 5 1012.8 1012.8 0.4
25/12:30am 20.6 21.2 15.8 74 2.9 NNW 7 13 4 7 1013.7 1013.6 0.2
25/12:00am 20.6 20.7 14.5 68 3.6 NNW 7 13 4 7 1013.8 1013.7 0.2
 
Date/Time
EDT
Temp
°C
App
Temp
°C
Dew
Point
°C
Rel
Hum
%
Delta-T
°C
Wind Press
QNH
hPa
Press
MSL
hPa
Rain since
9am
mm
Dir  Spd
km/h
Gust
km/h
Spd
kts
Gust
kts
24/11:30pm 21.5 22.6 14.6 65 4.1 E 2 6 1 3 1013.2 1013.2 0.2
24/11:00pm 21.9 21.9 14.3 62 4.4 ENE 7 11 4 6 1013.2 1013.2 0.2
24/10:30pm 22.0 21.9 13.9 60 4.7 NE 7 13 4 7 1013.4 1013.4 0.2
24/10:00pm 21.6 22.2 15.4 68 3.7 E 6 9 3 5 1013.8 1013.7 0.2
24/09:30pm 21.4 21.2 15.7 70 3.4 E 11 17 6 9 1014.2 1014.1 0.2
24/09:00pm 20.2 21.0 15.8 76 2.6 SE 6 9 3 5 1013.9 1013.8 0.2
24/08:30pm 19.6 20.3 15.7 78 2.3 S 6 13 3 7 1013.6 1013.5 0.2
24/08:00pm 19.9 20.6 15.7 77 2.5 SSW 6 9 3 5 1013.0 1013.0 0.2
24/07:30pm 21.2 21.0 15.7 71 3.3 SSW 11 13 6 7 1013.0 1013.0 0.2
24/07:00pm 22.0 22.3 16.1 69 3.6 SW 9 13 5 7 1013.1 1013.1 0.2
24/06:30pm 20.7 21.1 16.3 76 2.6 SW 9 15 5 8 1012.7 1012.7 0.2
24/06:00pm 21.8 21.1 15.4 67 3.8 SW 13 20 7 11 1012.6 1012.6 0.2
24/05:30pm 24.1 24.0 16.1 61 4.9 SW 11 15 6 8 1012.4 1012.4 0.2
24/05:00pm 24.5 24.2 15.4 57 5.5 SW 11 17 6 9 1012.3 1012.3 0.2
24/04:30pm 23.2 22.1 15.3 61 4.7 SSW 15 22 8 12 1012.4 1012.4 0.2
24/04:00pm 24.0 22.7 15.8 60 5.0 SW 17 26 9 14 1012.4 1012.4 0.2
24/03:50pm 23.5 21.3 14.8 58 5.2 SW 20 32 11 17 1012.4 1012.4 0.2
24/03:30pm 28.6 28.0 11.6 34 9.8 ESE 6 7 3 4 1012.5 1012.5 0.2
24/03:00pm 27.6 27.0 12.4 39 8.8 SSW 7 11 4 6 1012.7 1012.7 0.2
24/02:30pm 29.6 28.7 11.2 32 10.6 NW 7 13 4 7 1012.8 1012.8 0.2
24/02:00pm 29.2 28.3 11.3 33 10.3 NNW 7 15 4 8 1013.2 1013.2 0.2
24/01:30pm 27.4 26.6 11.8 38 9.0 NNW 7 11 4 6 1013.6 1013.5 0.0
24/01:00pm 26.4 25.2 11.7 40 8.4 NNW 9 17 5 9 1013.7 1013.6 0.0
24/12:30pm 26.0 25.5 12.8 44 7.7 NNW 7 13 4 7 1013.8 1013.7 0.0
24/12:00pm 24.3 23.6 13.2 50 6.4 NW 9 15 5 8 1014.0 1013.9 0.0
24/11:30am 24.1 24.0 13.3 51 6.3 WNW 6 11 3 6 1014.0 1013.9 0.0
24/11:00am 24.4 23.3 12.0 46 7.1 WNW 9 15 5 8 1013.9 1013.8 0.0
24/10:30am 25.1 24.3 13.0 47 7.0 NW 9 15 5 8 1013.4 1013.4 0.0
24/10:00am 24.5 24.8 14.6 54 5.9 NNW 6 9 3 5 1012.8 1012.8 0.0
24/09:30am 24.4 24.8 14.8 55 5.7 N 6 9 3 5 1012.5 1012.5 0.0
24/09:00am 23.9 25.6 16.2 62 4.7 W 2 11 1 6 1013.0 1013.0 0.2
24/08:30am 21.9 23.3 17.3 75 2.8 SSW 6 7 3 4 1013.1 1013.1 0.2
24/08:00am 21.1 23.2 17.3 79 2.3 ESE 2 4 1 2 1012.3 1012.3 0.2
24/07:30am 19.4 21.5 17.2 87 1.3 ESE 2 4 1 2 1012.0 1012.0 0.2
24/07:00am 17.0 18.8 15.5 91 0.9 CALM 0 0 0 0 1012.3 1012.3 0.2
24/06:30am 15.3 16.5 13.7 90 0.9 CALM 0 0 0 0 1012.0 1012.0 0.2
24/06:00am 15.9 17.3 14.3 90 0.9 CALM 0 0 0 0 1011.4 1011.4 0.2
24/05:30am 16.4 17.9 14.6 89 1.0 CALM 0 0 0 0 1011.2 1011.2 0.2
24/05:00am 16.5 17.2 14.5 88 1.1 SSE 4 7 2 4 1010.8 1010.8 0.2
24/04:30am 17.6 19.1 15.6 88 1.2 NNW 2 6 1 3 1010.8 1010.8 0.2
24/04:00am 17.8 19.3 15.6 87 1.3 WSW 2 6 1 3 1010.5 1010.5 0.2
24/03:30am 18.1 18.8 15.5 85 1.5 SSW 6 7 3 4 1010.4 1010.4 0.2
24/03:00am 19.1 21.1 16.1 83 1.8 CALM 0 0 0 0 1010.7 1010.7 0.2
24/02:30am 19.6 20.7 15.7 78 2.3 WSW 4 6 2 3 1010.8 1010.8 0.2
24/02:00am 20.0 20.3 14.6 71 3.2 NNW 6 22 3 12 1010.7 1010.7 0.0
24/01:30am 19.7 20.8 14.7 73 2.9 ESE 2 6 1 3 1010.4 1010.4 0.0
24/01:00am 19.2 19.8 14.2 73 2.9 N 4 9 2 5 1010.8 1010.8 0.0
24/12:30am 19.5 20.5 14.3 72 3.0 N 2 4 1 2 1011.0 1011.0 0.0
24/12:00am 18.8 19.9 14.7 77 2.4 SSW 2 4 1 2 1010.7 1010.7 0.0
 
Date/Time
EDT
Temp
°C
App
Temp
°C
Dew
Point
°C
Rel
Hum
%
Delta-T
°C
Wind Press
QNH
hPa
Press
MSL
hPa
Rain since
9am
mm
Dir  Spd
km/h
Gust
km/h
Spd
kts
Gust
kts
23/11:30pm 18.6 18.8 14.1 75 2.6 N 6 6 3 3 1010.3 1010.3 0.0
23/11:00pm 18.3 19.0 14.4 78 2.3 W 4 4 2 2 1010.6 1010.6 0.0
23/10:30pm 17.7 17.8 13.8 78 2.2 W 6 7 3 4 1010.6 1010.6 0.0
23/10:00pm 17.9 18.3 13.8 77 2.3 W 4 6 2 3 1010.5 1010.5 0.0
23/09:30pm 18.4 18.9 14.1 76 2.5 W 4 6 2 3 1010.5 1010.5 0.0
23/09:00pm 19.4 19.7 14.4 73 2.9 W 6 11 3 6 1010.3 1010.3 0.0
23/08:30pm 19.5 19.7 14.3 72 3.0 SW 6 9 3 5 1009.6 1009.6 0.0
23/08:00pm 20.9 21.2 14.5 67 3.7 SW 6 7 3 4 1009.2 1009.2 0.0
23/07:30pm 22.6 23.2 15.4 64 4.3 SW 6 9 3 5 1009.0 1009.0 0.0
23/07:00pm 24.0 23.5 15.0 57 5.4 SSW 11 13 6 7 1008.5 1008.5 0.0
23/06:30pm 25.2 24.5 14.3 50 6.5 SE 11 15 6 8 1008.3 1008.3 0.0
23/06:00pm 25.9 26.3 15.3 52 6.4 SE 7 15 4 8 1008.4 1008.4 0.0
23/05:30pm 24.8 24.6 15.7 57 5.5 ESE 11 17 6 9 1008.8 1008.8 0.0
23/05:00pm 25.4 26.1 16.0 56 5.7 SSW 7 13 4 7 1009.1 1009.1 0.0
23/04:30pm 24.6 24.2 15.2 55 5.6 SSW 11 15 6 8 1009.2 1009.2 0.0
23/04:00pm 24.8 24.2 14.6 53 6.1 WSW 11 15 6 8 1009.3 1009.3 0.0
23/03:30pm 24.9 24.2 15.5 56 5.7 SW 13 19 7 10 1009.3 1009.3 0.0
23/03:00pm 24.6 24.2 15.2 55 5.7 SW 11 15 6 8 1009.4 1009.4 0.0
23/02:30pm 23.5 22.7 16.1 63 4.5 SW 15 20 8 11 1009.5 1009.5 0.0
23/02:00pm 24.5 23.4 15.4 57 5.5 SW 15 20 8 11 1009.7 1009.7 0.0
23/01:30pm 24.5 23.0 15.4 57 5.5 SW 17 24 9 13 1009.9 1009.9 0.0
23/01:00pm 26.5 26.1 16.1 52 6.4 SSW 13 19 7 10 1010.0 1010.0 0.0
23/12:30pm 30.2 27.3 9.7 28 11.5 NW 15 24 8 13 1010.3 1010.3 0.0
23/12:00pm 29.3 26.1 8.4 27 11.5 NW 15 24 8 13 1010.6 1010.6 0.0
23/11:30am 28.1 25.7 9.9 32 10.2 NNW 13 24 7 13 1010.9 1010.9 0.0
23/11:00am 26.1 25.5 13.6 46 7.4 N 9 15 5 8 1011.1 1011.1 0.0
23/10:30am 24.6 25.6 16.3 60 5.1 E 6 9 3 5 1011.3 1011.3 0.0
23/10:00am 22.7 23.5 14.8 61 4.7 WNW 4 7 2 4 1011.5 1011.5 0.0
23/09:30am 20.4 21.7 15.2 72 3.1 WSW 2 6 1 3 1011.6 1011.6 0.0
23/09:00am 18.9 20.8 15.8 82 1.8 CALM 0 0 0 0 1011.8 1011.8 0.0
23/08:30am 17.4 19.0 14.9 85 1.4 CALM 0 2 0 1 1011.8 1011.8 0.0
23/08:00am 16.7 18.5 15.4 92 0.8 CALM 0 4 0 2 1011.9 1011.9 0.0
23/07:30am 15.0 16.2 13.7 92 0.7 CALM 0 4 0 2 1011.8 1011.8 0.0
23/07:00am 13.0 13.6 11.9 93 0.6 CALM 0 0 0 0 1011.7 1011.7 0.0
23/06:30am 10.7 10.6 9.5 92 0.6 CALM 0 0 0 0 1011.6 1011.6 0.0
23/06:00am 10.5 10.4 9.3 92 0.6 CALM 0 0 0 0 1011.3 1011.3 0.0
23/05:30am 10.9 10.9 9.7 92 0.6 CALM 0 0 0 0 1011.1 1011.1 0.0
23/05:00am 11.3 11.0 10.0 92 0.7 W 2 4 1 2 1011.0 1011.0 0.0
23/04:30am 11.7 11.1 10.4 92 0.7 W 4 6 2 3 1010.9 1010.9 0.0
23/04:00am 12.6 13.0 11.3 92 0.7 CALM 0 2 0 1 1011.1 1011.1 0.0
23/03:30am 12.7 12.8 11.4 92 0.7 W 2 4 1 2 1011.2 1011.2 0.0
23/03:00am 13.2 13.4 11.9 92 0.7 W 2 7 1 4 1011.3 1011.3 0.0
23/02:30am 13.0 12.7 11.6 91 0.7 W 4 4 2 2 1011.7 1011.7 0.0
23/02:00am 13.5 13.4 12.1 91 0.8 W 4 6 2 3 1011.8 1011.8 0.0
23/01:30am 13.6 13.1 12.2 91 0.8 WSW 6 9 3 5 1012.1 1012.1 0.0
23/01:00am 14.0 13.5 12.6 91 0.8 W 7 9 4 5 1012.3 1012.3 0.0
23/12:30am 14.4 14.0 13.0 91 0.8 W 7 9 4 5 1012.3 1012.3 0.0
23/12:00am 14.4 14.1 12.6 89 1.0 W 6 7 3 4 1012.5 1012.5 0.0
 
Date/Time
EDT
Temp
°C
App
Temp
°C
Dew
Point
°C
Rel
Hum
%
Delta-T
°C
Wind Press
QNH
hPa
Press
MSL
hPa
Rain since
9am
mm
Dir  Spd
km/h
Gust
km/h
Spd
kts
Gust
kts
22/11:30pm 14.6 14.3 12.8 89 1.0 WSW 6 7 3 4 1012.6 1012.6 0.0
22/11:00pm 15.0 15.5 12.9 87 1.2 WSW 2 4 1 2 1012.8 1012.8 0.0
22/10:30pm 15.6 15.5 13.4 87 1.2 WSW 6 7 3 4 1013.1 1013.1 0.0
22/10:00pm 15.9 16.7 13.6 86 1.3 WSW 2 4 1 2 1013.2 1013.2 0.0
22/09:30pm 16.1 16.1 13.6 85 1.4 WSW 6 7 3 4 1013.1 1013.1 0.0
22/09:00pm 17.1 17.6 14.0 82 1.8 W 4 6 2 3 1013.2 1013.2 0.0
22/08:30pm 17.6 17.5 13.9 79 2.1 W 7 7 4 4 1013.2 1013.2 0.0
22/08:00pm 19.7 20.1 14.7 73 2.9 WSW 6 9 3 5 1013.1 1013.1 0.0
22/07:30pm 20.9 20.8 15.0 69 3.5 SW 9 13 5 7 1013.0 1013.0 0.0
22/07:00pm 22.1 22.2 15.5 66 3.9 SW 9 13 5 7 1012.9 1012.9 0.0
22/06:30pm 23.1 22.9 15.7 63 4.5 SW 11 15 6 8 1012.9 1012.9 0.0
22/06:00pm 23.4 23.1 15.5 61 4.7 SW 11 15 6 8 1013.0 1013.0 0.0
22/05:30pm 24.5 23.6 14.9 55 5.7 SW 13 17 7 9 1013.1 1013.1 0.0
22/05:00pm 26.2 25.4 14.0 47 7.2 S 11 17 6 9 1013.2 1013.2 0.0
22/04:30pm 27.6 26.3 12.4 39 8.8 SSE 11 17 6 9 1013.4 1013.4 0.0
22/04:00pm 27.7 26.3 12.1 38 9.0 SSE 11 17 6 9 1013.6 1013.5 0.0
22/03:30pm 27.4 26.9 13.7 43 8.1 SE 9 15 5 8 1013.9 1013.8 0.0
22/03:00pm 27.4 25.6 12.2 39 8.8 S 13 19 7 10 1014.3 1014.2 0.0
22/02:30pm 27.7 25.8 11.7 37 9.2 S 13 17 7 9 1014.6 1014.5 0.0
22/02:00pm 28.4 26.8 12.7 38 9.2 S 13 22 7 12 1014.8 1014.7 0.0
22/01:30pm 28.4 27.0 12.3 37 9.4 SSE 11 17 6 9 1015.1 1015.0 0.0
22/01:00pm 28.5 26.4 9.7 31 10.5 ESE 11 17 6 9 1015.4 1015.3 0.0
22/12:30pm 28.5 27.2 11.1 34 9.9 ESE 9 13 5 7 1015.6 1015.5 0.0
22/12:00pm 28.4 27.0 11.0 34 9.9 E 9 15 5 8 1015.9 1015.8 0.0
22/11:30am 27.8 27.0 10.9 35 9.6 ESE 6 7 3 4 1016.0 1015.9 0.0
22/11:00am 26.1 25.1 11.1 39 8.5 ENE 7 13 4 7 1016.3 1016.2 0.0
22/10:30am 25.0 23.9 10.8 41 7.9 ENE 7 13 4 7 1016.5 1016.4 0.0
22/10:00am 24.1 23.0 10.7 43 7.4 ENE 7 11 4 6 1016.7 1016.6 0.0
22/09:30am 23.0 21.7 11.1 47 6.6 ENE 9 11 5 6 1016.8 1016.7 0.0
22/09:00am 22.1 21.6 12.6 55 5.4 NE 7 15 4 8 1016.9 1016.8 0.0
22/08:30am 19.8 18.1 11.3 58 4.7 NNE 11 19 6 10 1016.9 1016.8 0.0
22/08:00am 19.2 19.1 13.8 71 3.1 NNE 7 15 4 8 1016.6 1016.5 0.0
22/07:30am 18.2 18.0 13.5 74 2.7 NNE 7 19 4 10 1016.4 1016.3 0.0

Other Formats:

Comma delimited format used in spreadsheet applications
http://www.bom.gov.au/fwo/IDV60801/IDV60801.94898.axf

JavaScript Object Notation format (JSON) in row-major order
http://www.bom.gov.au/fwo/IDV60801/IDV60801.94898.json